createdAt,value
2022-11-24T00:00:56.873Z,5.17
2022-11-24T00:01:56.883Z,5.15
2022-11-24T00:02:57.035Z,5.17
2022-11-24T00:03:56.848Z,5.15
2022-11-24T00:04:56.834Z,5.13
2022-11-24T00:05:56.837Z,5.15
2022-11-24T00:06:56.827Z,5.13
2022-11-24T00:07:56.844Z,5.15
2022-11-24T00:08:56.796Z,5.17
2022-11-24T00:09:56.792Z,5.17
2022-11-24T00:10:56.767Z,5.17
2022-11-24T00:11:56.761Z,5.18
2022-11-24T00:12:56.745Z,5.18
2022-11-24T00:13:56.740Z,5.18
2022-11-24T00:14:56.738Z,5.18
2022-11-24T00:15:56.722Z,5.20
2022-11-24T00:16:56.809Z,5.18
2022-11-24T00:17:56.697Z,5.18
2022-11-24T00:18:56.684Z,5.20
2022-11-24T00:19:56.689Z,5.21
2022-11-24T00:20:56.688Z,5.20
2022-11-24T00:21:56.659Z,5.20
2022-11-24T00:22:56.644Z,5.21
2022-11-24T00:23:56.644Z,5.22
2022-11-24T00:24:56.630Z,5.21
2022-11-24T00:25:56.621Z,5.21
2022-11-24T00:26:56.626Z,5.21
2022-11-24T00:27:56.598Z,5.24
2022-11-24T00:28:56.581Z,5.24
2022-11-24T00:29:56.573Z,5.25
2022-11-24T00:30:56.595Z,5.28
2022-11-24T00:31:56.572Z,5.33
2022-11-24T00:32:56.539Z,5.31
2022-11-24T00:33:56.531Z,5.33
2022-11-24T00:34:56.549Z,5.35
2022-11-24T00:35:56.507Z,5.38
2022-11-24T00:36:56.507Z,5.39
2022-11-24T00:37:56.496Z,5.42
2022-11-24T00:38:56.475Z,5.43
2022-11-24T00:39:56.479Z,5.46
2022-11-24T00:40:56.458Z,5.46
2022-11-24T00:41:56.458Z,5.49
2022-11-24T00:42:56.439Z,5.53
2022-11-24T00:43:56.444Z,5.54
2022-11-24T00:44:56.425Z,5.56
2022-11-24T00:45:56.494Z,5.58
2022-11-24T00:46:56.490Z,5.61
2022-11-24T00:47:56.397Z,5.63
2022-11-24T00:48:56.379Z,5.67
2022-11-24T00:49:56.373Z,5.68
2022-11-24T00:50:56.356Z,5.71
2022-11-24T00:51:56.347Z,5.75
2022-11-24T00:52:56.327Z,5.81
2022-11-24T00:53:56.346Z,5.85
2022-11-24T00:54:56.318Z,5.86
2022-11-24T00:55:56.296Z,5.91
2022-11-24T00:56:56.280Z,5.94
2022-11-24T00:57:56.284Z,5.96
2022-11-24T00:58:56.278Z,5.99
2022-11-24T00:59:56.258Z,6.00
2022-11-24T01:00:56.271Z,6.03
2022-11-24T01:01:56.295Z,6.06
2022-11-24T01:02:56.285Z,6.09
2022-11-24T01:03:56.236Z,6.09
2022-11-24T01:04:56.199Z,6.11
2022-11-24T01:05:56.191Z,6.12
2022-11-24T01:06:56.188Z,6.14
2022-11-24T01:07:56.232Z,6.17
2022-11-24T01:08:56.169Z,6.21
2022-11-24T01:09:56.156Z,6.25
2022-11-24T01:10:56.136Z,6.28
2022-11-24T01:11:56.144Z,6.31
2022-11-24T01:12:56.120Z,6.34
2022-11-24T01:13:56.125Z,6.34
2022-11-24T01:14:56.108Z,6.34
2022-11-24T01:15:56.208Z,6.34
2022-11-24T01:16:56.078Z,6.34
2022-11-24T01:17:56.069Z,6.33
2022-11-24T01:18:56.045Z,6.34
2022-11-24T01:19:56.043Z,6.36
2022-11-24T01:20:56.044Z,6.36
2022-11-24T01:21:56.026Z,6.36
2022-11-24T01:22:56.039Z,6.38
2022-11-24T01:23:55.995Z,6.44
2022-11-24T01:24:56.009Z,6.49
2022-11-24T01:25:55.981Z,6.51
2022-11-24T01:26:55.964Z,6.55
2022-11-24T01:27:55.955Z,6.55
2022-11-24T01:28:55.953Z,6.56
2022-11-24T01:29:55.936Z,6.56
2022-11-24T01:30:55.973Z,6.55
2022-11-24T01:31:55.929Z,6.56
2022-11-24T01:32:55.901Z,6.56
2022-11-24T01:33:55.918Z,6.58
2022-11-24T01:34:55.899Z,6.56
2022-11-24T01:35:55.870Z,6.58
2022-11-24T01:36:55.875Z,6.59
2022-11-24T01:37:55.849Z,6.58
2022-11-24T01:38:55.837Z,6.61
2022-11-24T01:39:55.833Z,6.61
2022-11-24T01:40:55.816Z,6.62
2022-11-24T01:41:55.808Z,6.61
2022-11-24T01:42:55.814Z,6.61
2022-11-24T01:43:55.802Z,6.59
2022-11-24T01:44:55.771Z,6.61
2022-11-24T01:45:55.833Z,6.58
2022-11-24T01:47:02.247Z,6.59
2022-11-24T01:47:55.741Z,6.58
2022-11-24T01:48:55.725Z,6.59
2022-11-24T01:49:55.718Z,6.59
2022-11-24T01:50:55.706Z,6.59
2022-11-24T01:51:55.716Z,6.62
2022-11-24T01:52:55.700Z,6.61
2022-11-24T01:53:55.699Z,6.61
2022-11-24T01:54:55.664Z,6.61
2022-11-24T01:55:55.658Z,6.59
2022-11-24T01:56:55.647Z,6.58
2022-11-24T01:57:55.653Z,6.58
2022-11-24T01:58:55.622Z,6.56
2022-11-24T01:59:55.619Z,6.58
2022-11-24T02:00:55.602Z,6.56
2022-11-24T02:01:55.624Z,6.55
2022-11-24T02:02:55.623Z,6.56
2022-11-24T02:03:55.583Z,6.54
2022-11-24T02:04:55.570Z,6.55
2022-11-24T02:05:55.555Z,6.55
2022-11-24T02:06:55.537Z,6.52
2022-11-24T02:07:55.602Z,6.54
2022-11-24T02:08:55.540Z,6.52
2022-11-24T02:09:55.510Z,6.49
2022-11-24T02:10:55.502Z,6.49
2022-11-24T02:13:22.569Z,6.46
2022-11-24T02:13:27.584Z,6.43
2022-11-24T02:14:27.586Z,6.41
2022-11-24T02:15:27.553Z,6.38
2022-11-24T02:16:27.559Z,6.36
2022-11-24T02:17:27.533Z,6.34
2022-11-24T02:18:27.520Z,6.34
2022-11-24T02:19:27.535Z,6.33
2022-11-24T02:20:27.513Z,6.31
2022-11-24T02:21:27.494Z,6.33
2022-11-24T02:22:27.485Z,6.33
2022-11-24T02:23:27.471Z,6.34
2022-11-24T02:24:27.464Z,6.38
2022-11-24T02:25:27.461Z,6.40
2022-11-24T02:26:27.445Z,6.44
2022-11-24T02:27:27.428Z,6.48
2022-11-24T02:28:27.425Z,6.48
2022-11-24T02:29:27.420Z,6.48
2022-11-24T02:30:27.406Z,6.48
2022-11-24T02:31:27.447Z,6.48
2022-11-24T02:32:27.409Z,6.46
2022-11-24T02:33:27.366Z,6.46
2022-11-24T02:34:27.353Z,6.46
2022-11-24T02:35:27.348Z,6.44
2022-11-24T02:36:27.343Z,6.44
2022-11-24T02:37:27.337Z,6.43
2022-11-24T02:38:27.311Z,6.41
2022-11-24T02:39:27.307Z,6.41
2022-11-24T02:40:27.291Z,6.46
2022-11-24T02:41:27.299Z,6.51
2022-11-24T02:42:27.283Z,6.52
2022-11-24T02:43:27.270Z,6.58
2022-11-24T02:44:27.247Z,6.59
2022-11-24T02:45:27.265Z,6.59
2022-11-24T02:46:27.267Z,6.62
2022-11-24T02:47:27.227Z,6.64
2022-11-24T02:48:27.214Z,6.64
2022-11-24T02:49:27.203Z,6.66
2022-11-24T02:50:27.200Z,6.66
2022-11-24T02:51:27.187Z,6.66
2022-11-24T02:52:27.173Z,6.66
2022-11-24T02:53:27.166Z,6.67
2022-11-24T02:54:27.139Z,6.67
2022-11-24T02:55:27.147Z,6.66
2022-11-24T02:56:27.117Z,6.66
2022-11-24T02:57:27.118Z,6.64
2022-11-24T02:58:27.095Z,6.64
2022-11-24T02:59:27.100Z,6.64
2022-11-24T03:00:27.080Z,6.66
2022-11-24T03:01:27.151Z,6.66
2022-11-24T03:02:27.139Z,6.70
2022-11-24T03:03:27.045Z,6.70
2022-11-24T03:04:27.053Z,6.70
2022-11-24T03:05:27.027Z,6.73
2022-11-24T03:06:27.018Z,6.73
2022-11-24T03:07:27.035Z,6.74
2022-11-24T03:08:26.989Z,6.73
2022-11-24T03:09:26.991Z,6.76
2022-11-24T03:10:27.000Z,6.76
2022-11-24T03:11:26.966Z,6.77
2022-11-24T03:12:26.954Z,6.77
2022-11-24T03:13:26.943Z,6.80
2022-11-24T03:14:26.940Z,6.80
2022-11-24T03:15:26.919Z,6.80
2022-11-24T03:16:26.977Z,6.80
2022-11-24T03:17:26.902Z,6.80
2022-11-24T03:18:26.886Z,6.81
2022-11-24T03:19:26.879Z,6.80
2022-11-24T03:20:26.864Z,6.81
2022-11-24T03:21:26.858Z,6.80
2022-11-24T03:22:26.859Z,6.80
2022-11-24T03:23:26.841Z,6.81
2022-11-24T03:24:26.829Z,6.80
2022-11-24T03:25:26.828Z,6.81
2022-11-24T03:26:26.835Z,6.81
2022-11-24T03:27:26.805Z,6.81
2022-11-24T03:28:26.804Z,6.81
2022-11-24T03:29:25.770Z,6.84
2022-11-24T03:30:26.758Z,6.84
2022-11-24T03:31:26.810Z,6.84
2022-11-24T03:32:26.744Z,6.84
2022-11-24T03:33:26.739Z,6.81
2022-11-24T03:34:26.729Z,6.85
2022-11-24T03:35:26.713Z,6.84
2022-11-24T03:36:26.714Z,6.84
2022-11-24T03:37:26.717Z,6.85
2022-11-24T03:38:26.693Z,6.88
2022-11-24T03:39:26.684Z,6.89
2022-11-24T03:40:26.696Z,6.91
2022-11-24T03:41:26.649Z,6.91
2022-11-24T03:42:26.657Z,6.94
2022-11-24T03:43:26.635Z,6.92
2022-11-24T03:44:26.637Z,6.95
2022-11-24T03:46:25.623Z,6.95
2022-11-24T03:47:26.595Z,6.94
2022-11-24T03:48:26.572Z,6.94
2022-11-24T03:49:26.565Z,6.94
2022-11-24T03:50:26.574Z,6.94
2022-11-24T03:51:26.542Z,6.95
2022-11-24T03:52:26.530Z,6.95
2022-11-24T03:53:26.537Z,6.95
2022-11-24T03:54:26.501Z,6.97
2022-11-24T03:55:26.509Z,6.98
2022-11-24T03:56:26.517Z,6.97
2022-11-24T03:57:26.476Z,6.99
2022-11-24T03:58:26.492Z,7.03
2022-11-24T03:59:26.475Z,7.02
2022-11-24T04:00:26.441Z,7.05
2022-11-24T04:01:26.501Z,7.05
2022-11-24T04:02:26.488Z,7.05
2022-11-24T04:03:26.416Z,7.07
2022-11-24T04:04:26.396Z,7.09
2022-11-24T04:05:26.407Z,7.07
2022-11-24T04:06:26.393Z,7.07
2022-11-24T04:07:26.438Z,7.06
2022-11-24T04:08:26.359Z,7.05
2022-11-24T04:09:26.352Z,7.03
2022-11-24T04:10:26.333Z,7.03
2022-11-24T04:11:26.347Z,7.03
2022-11-24T04:12:26.326Z,7.02
2022-11-24T04:13:26.320Z,7.02
2022-11-24T04:14:26.295Z,6.99
2022-11-24T04:15:26.317Z,6.99
2022-11-24T04:16:26.346Z,6.99
2022-11-24T04:17:26.270Z,6.99
2022-11-24T04:18:26.262Z,6.98
2022-11-24T04:19:26.252Z,6.98
2022-11-24T04:20:26.230Z,6.95
2022-11-24T04:21:26.220Z,6.95
2022-11-24T04:22:26.216Z,6.94
2022-11-24T04:23:26.209Z,6.94
2022-11-24T04:24:26.199Z,6.95
2022-11-24T04:25:26.178Z,6.97
2022-11-24T04:26:26.166Z,6.99
2022-11-24T04:27:26.158Z,6.99
2022-11-24T04:28:26.160Z,7.02
2022-11-24T04:29:26.149Z,7.02
2022-11-24T04:30:26.124Z,7.05
2022-11-24T04:31:26.174Z,7.05
2022-11-24T04:32:26.103Z,7.07
2022-11-24T04:33:26.118Z,7.07
2022-11-24T04:34:26.095Z,7.09
2022-11-24T04:35:26.076Z,7.12
2022-11-24T04:36:26.062Z,7.15
2022-11-24T04:37:26.066Z,7.15
2022-11-24T04:39:23.122Z,7.16
2022-11-24T04:39:30.715Z,7.21
2022-11-24T04:40:26.034Z,7.25
2022-11-24T04:41:26.015Z,7.27
2022-11-24T04:42:26.008Z,7.28
2022-11-24T04:43:25.989Z,7.27
2022-11-24T04:44:25.980Z,7.30
2022-11-24T04:45:25.997Z,7.30
2022-11-24T04:46:25.996Z,7.28
2022-11-24T04:47:25.948Z,7.30
2022-11-24T04:48:25.937Z,7.30
2022-11-24T04:49:25.945Z,7.30
2022-11-24T04:50:25.914Z,7.31
2022-11-24T04:51:25.923Z,7.31
2022-11-24T04:52:25.897Z,7.30
2022-11-24T04:53:25.888Z,7.31
2022-11-24T04:54:25.876Z,7.31
2022-11-24T04:55:25.879Z,7.31
2022-11-24T04:56:25.866Z,7.32
2022-11-24T04:57:25.855Z,7.32
2022-11-24T04:58:25.834Z,7.35
2022-11-24T04:59:25.826Z,7.37
2022-11-24T05:00:25.810Z,7.37
2022-11-24T05:01:25.851Z,7.35
2022-11-24T05:02:25.800Z,7.40
2022-11-24T05:03:25.778Z,7.39
2022-11-24T05:04:25.812Z,7.40
2022-11-24T05:05:25.776Z,7.39
2022-11-24T05:06:25.752Z,7.37
2022-11-24T05:07:25.845Z,7.39
2022-11-24T05:08:25.729Z,7.40
2022-11-24T05:09:41.736Z,7.40
2022-11-24T05:10:25.711Z,7.40
2022-11-24T05:11:25.713Z,7.40
2022-11-24T05:12:25.699Z,7.39
2022-11-24T05:13:25.688Z,7.40
2022-11-24T05:14:25.680Z,7.39
2022-11-24T05:15:25.670Z,7.42
2022-11-24T05:16:25.745Z,7.42
2022-11-24T05:17:25.657Z,7.42
2022-11-24T05:18:25.639Z,7.42
2022-11-24T05:19:29.839Z,7.42
2022-11-24T05:20:25.620Z,7.37
2022-11-24T05:21:25.620Z,7.37
2022-11-24T05:22:25.580Z,7.39
2022-11-24T05:23:25.614Z,7.39
2022-11-24T05:24:25.559Z,7.40
2022-11-24T05:25:25.571Z,7.42
2022-11-24T05:26:25.538Z,7.42
2022-11-24T05:27:25.557Z,7.42
2022-11-24T05:28:25.516Z,7.42
2022-11-24T05:29:25.549Z,7.43
2022-11-24T05:30:25.493Z,7.42
2022-11-24T05:31:25.574Z,7.42
2022-11-24T05:32:25.483Z,7.42
2022-11-24T05:33:25.494Z,7.40
2022-11-24T05:34:25.465Z,7.42
2022-11-24T05:35:25.464Z,7.42
2022-11-24T05:36:25.439Z,7.42
2022-11-24T05:37:25.454Z,7.42
2022-11-24T05:38:25.427Z,7.40
2022-11-24T05:39:25.448Z,7.39
2022-11-24T05:40:25.403Z,7.37
2022-11-24T05:41:25.416Z,7.37
2022-11-24T05:42:25.377Z,7.39
2022-11-24T05:43:25.395Z,7.37
2022-11-24T05:44:25.364Z,7.35
2022-11-24T05:45:25.369Z,7.34
2022-11-24T05:46:25.385Z,7.34
2022-11-24T05:47:25.336Z,7.31
2022-11-24T05:48:25.312Z,7.31
2022-11-24T05:49:25.328Z,7.31
2022-11-24T05:50:25.315Z,7.28
2022-11-24T05:51:25.312Z,7.27
2022-11-24T05:52:25.270Z,7.27
2022-11-24T05:53:25.275Z,7.25
2022-11-24T05:54:25.250Z,7.27
2022-11-24T05:55:25.252Z,7.24
2022-11-24T05:56:25.263Z,7.21
2022-11-24T05:57:25.250Z,7.20
2022-11-24T05:58:25.213Z,7.17
2022-11-24T05:59:25.213Z,7.13
2022-11-24T06:00:25.186Z,7.12
2022-11-24T06:01:25.190Z,7.09
2022-11-24T06:02:25.347Z,7.09
2022-11-24T06:03:25.195Z,7.07
2022-11-24T06:04:24.136Z,7.05
2022-11-24T06:05:25.149Z,7.03
2022-11-24T06:06:25.127Z,6.99
2022-11-24T06:07:25.227Z,6.97
2022-11-24T06:08:29.680Z,6.94
2022-11-24T06:09:25.080Z,6.91
2022-11-24T06:10:25.084Z,6.91
2022-11-24T06:11:25.055Z,6.92
2022-11-24T06:12:25.000Z,6.92
2022-11-24T06:13:25.154Z,6.92
2022-11-24T06:14:25.045Z,6.92
2022-11-24T06:15:25.059Z,6.91
2022-11-24T06:16:25.051Z,6.91
2022-11-24T06:17:25.024Z,6.89
2022-11-24T06:18:25.008Z,6.85
2022-11-24T06:19:24.972Z,6.85
2022-11-24T06:20:28.494Z,6.80
2022-11-24T06:21:24.932Z,6.79
2022-11-24T06:22:24.899Z,6.77
2022-11-24T06:23:24.938Z,6.74
2022-11-24T06:24:24.877Z,6.73
2022-11-24T06:25:24.901Z,6.67
2022-11-24T06:26:24.860Z,6.66
2022-11-24T06:27:24.885Z,6.61
2022-11-24T06:28:24.840Z,6.56
2022-11-24T06:29:24.866Z,6.52
2022-11-24T06:30:24.828Z,6.49
2022-11-24T06:31:24.855Z,6.46
2022-11-24T06:32:24.800Z,6.49
2022-11-24T06:33:24.800Z,6.46
2022-11-24T06:34:24.813Z,6.46
2022-11-24T06:35:24.771Z,6.44
2022-11-24T06:36:24.768Z,6.44
2022-11-24T06:37:24.745Z,6.40
2022-11-24T06:38:24.783Z,6.37
2022-11-24T06:39:25.023Z,6.36
2022-11-24T06:40:24.729Z,6.34
2022-11-24T06:41:24.706Z,6.33
2022-11-24T06:42:24.737Z,6.31
2022-11-24T06:43:24.691Z,6.30
2022-11-24T06:44:24.684Z,6.31
2022-11-24T06:45:24.701Z,6.31
2022-11-24T06:46:24.689Z,6.38
2022-11-24T06:47:24.645Z,6.48
2022-11-24T06:48:24.646Z,6.58
2022-11-24T06:49:24.631Z,6.69
2022-11-24T06:50:26.947Z,6.77
2022-11-24T06:51:24.612Z,6.84
2022-11-24T06:52:24.633Z,6.87
2022-11-24T06:53:24.583Z,6.92
2022-11-24T06:54:24.600Z,6.95
2022-11-24T06:55:24.567Z,6.99
2022-11-24T06:56:24.578Z,7.02
2022-11-24T06:57:24.537Z,7.03
2022-11-24T06:58:24.565Z,7.06
2022-11-24T06:59:24.514Z,7.09
2022-11-24T07:00:24.519Z,7.09
2022-11-24T07:01:24.524Z,7.10
2022-11-24T07:02:24.510Z,7.09
2022-11-24T07:03:24.546Z,7.09
2022-11-24T07:04:24.488Z,7.09
2022-11-24T07:05:24.448Z,7.07
2022-11-24T07:06:24.471Z,7.06
2022-11-24T07:07:24.484Z,7.06
2022-11-24T07:08:24.459Z,7.05
2022-11-24T07:09:24.427Z,7.03
2022-11-24T07:10:24.427Z,7.03
2022-11-24T07:11:24.388Z,7.02
2022-11-24T07:12:24.415Z,6.99
2022-11-24T07:13:24.372Z,7.02
2022-11-24T07:14:24.385Z,7.03
2022-11-24T07:15:24.373Z,7.02
2022-11-24T07:16:24.415Z,7.03
2022-11-24T07:17:24.322Z,7.03
2022-11-24T07:18:24.345Z,7.02
2022-11-24T07:19:25.179Z,7.03
2022-11-24T07:20:24.319Z,7.03
2022-11-24T07:21:24.298Z,7.03
2022-11-24T07:22:24.302Z,7.03
2022-11-24T07:23:24.265Z,7.03
2022-11-24T07:24:24.282Z,7.07
2022-11-24T07:25:24.249Z,7.09
2022-11-24T07:26:24.256Z,7.10
2022-11-24T07:27:24.220Z,7.10
2022-11-24T07:28:24.251Z,7.13
2022-11-24T07:29:24.211Z,7.12
2022-11-24T07:30:24.203Z,7.13
2022-11-24T07:31:24.234Z,7.12
2022-11-24T07:32:24.200Z,7.12
2022-11-24T07:33:24.178Z,7.12
2022-11-24T07:34:24.187Z,7.13
2022-11-24T07:35:24.141Z,7.13
2022-11-24T07:36:24.161Z,7.15
2022-11-24T07:37:29.640Z,7.15
2022-11-24T07:38:24.125Z,7.13
2022-11-24T07:39:24.093Z,7.15
2022-11-24T07:40:24.116Z,7.16
2022-11-24T07:41:24.078Z,7.17
2022-11-24T07:42:24.122Z,7.21
2022-11-24T07:43:24.064Z,7.20
2022-11-24T07:44:24.057Z,7.21
2022-11-24T07:45:24.037Z,7.25
2022-11-24T07:46:24.111Z,7.27
2022-11-24T07:47:24.011Z,7.28
2022-11-24T07:48:24.035Z,7.32
2022-11-24T07:49:23.994Z,7.39
2022-11-24T07:50:24.002Z,7.42
2022-11-24T07:51:23.983Z,7.45
2022-11-24T07:52:24.002Z,7.48
2022-11-24T07:53:23.963Z,7.55
2022-11-24T07:54:23.968Z,7.61
2022-11-24T07:55:23.937Z,7.72
2022-11-24T07:56:23.948Z,7.80
2022-11-24T07:57:23.920Z,7.86
2022-11-24T07:58:26.480Z,7.97
2022-11-24T07:59:23.917Z,8.04
2022-11-24T08:00:23.907Z,8.19
2022-11-24T08:01:23.897Z,8.28
2022-11-24T08:02:23.881Z,8.36
2022-11-24T08:03:23.888Z,8.41
2022-11-24T08:04:23.877Z,8.41
2022-11-24T08:05:23.836Z,8.45
2022-11-24T08:06:27.401Z,8.55
2022-11-24T08:07:23.876Z,8.61
2022-11-24T08:08:23.806Z,8.66
2022-11-24T08:09:23.791Z,8.71
2022-11-24T08:10:23.800Z,8.74
2022-11-24T08:11:23.761Z,8.77
2022-11-24T08:12:23.766Z,8.71
2022-11-24T08:13:23.740Z,8.68
2022-11-24T08:14:23.760Z,8.66
2022-11-24T08:15:23.719Z,8.65
2022-11-24T08:16:23.796Z,8.61
2022-11-24T08:17:23.718Z,8.62
2022-11-24T08:18:23.714Z,8.63
2022-11-24T08:19:23.697Z,8.65
2022-11-24T08:20:23.700Z,8.59
2022-11-24T08:21:23.803Z,8.58
2022-11-24T08:22:23.685Z,8.56
2022-11-24T08:23:23.640Z,8.58
2022-11-24T08:24:23.645Z,8.55
2022-11-24T08:25:23.623Z,8.58
2022-11-24T08:26:23.646Z,8.59
2022-11-24T08:27:23.595Z,8.59
2022-11-24T08:28:23.596Z,8.59
2022-11-24T08:29:23.579Z,8.61
2022-11-24T08:30:23.576Z,8.62
2022-11-24T08:31:23.604Z,8.68
2022-11-24T08:32:23.607Z,8.73
2022-11-24T08:33:23.532Z,8.79
2022-11-24T08:34:23.554Z,8.84
2022-11-24T08:35:23.511Z,8.84
2022-11-24T08:36:23.537Z,8.84
2022-11-24T08:37:23.495Z,8.84
2022-11-24T08:38:23.504Z,8.84
2022-11-24T08:39:23.482Z,8.89
2022-11-24T08:40:23.605Z,8.94
2022-11-24T08:41:23.443Z,8.98
2022-11-24T08:42:23.478Z,8.98
2022-11-24T08:43:23.420Z,9.02
2022-11-24T08:44:23.454Z,9.08
2022-11-24T08:45:25.643Z,9.13
2022-11-24T08:46:23.493Z,9.14
2022-11-24T08:47:23.381Z,9.17
2022-11-24T08:48:23.395Z,9.20
2022-11-24T08:49:23.372Z,9.20
2022-11-24T08:50:23.546Z,9.23
2022-11-24T08:51:23.343Z,9.29
2022-11-24T08:52:23.345Z,9.29
2022-11-24T08:53:23.329Z,9.31
2022-11-24T08:54:23.329Z,9.32
2022-11-24T08:55:23.322Z,9.32
2022-11-24T08:56:23.307Z,9.33
2022-11-24T08:57:23.278Z,9.36
2022-11-24T08:58:23.292Z,9.40
2022-11-24T08:59:23.329Z,9.42
2022-11-24T09:00:23.334Z,9.42
2022-11-24T09:01:23.336Z,9.38
2022-11-24T09:02:23.236Z,9.38
2022-11-24T09:03:23.244Z,9.35
2022-11-24T09:04:23.268Z,9.32
2022-11-24T09:05:50.539Z,9.31
2022-11-24T09:06:23.318Z,9.24
2022-11-24T09:07:23.266Z,9.20
2022-11-24T09:08:23.213Z,9.18
2022-11-24T09:09:23.148Z,9.18
2022-11-24T09:10:23.185Z,9.18
2022-11-24T09:11:23.133Z,9.20
2022-11-24T09:12:23.145Z,9.20
2022-11-24T09:13:23.104Z,9.20
2022-11-24T09:14:23.130Z,9.21
2022-11-24T09:15:23.100Z,9.21
2022-11-24T09:16:23.152Z,9.17
2022-11-24T09:17:23.065Z,9.11
2022-11-24T09:18:27.487Z,9.14
2022-11-24T09:19:23.068Z,9.18
2022-11-24T09:20:23.061Z,9.18
2022-11-24T09:21:23.033Z,9.17
2022-11-24T09:22:23.053Z,9.18
2022-11-24T09:23:23.010Z,9.18
2022-11-24T09:24:23.017Z,9.18
2022-11-24T09:25:22.996Z,9.14
2022-11-24T09:26:23.011Z,9.04
2022-11-24T09:27:22.971Z,9.01
2022-11-24T09:28:22.968Z,8.99
2022-11-24T09:29:22.948Z,8.96
2022-11-24T09:30:22.968Z,8.95
2022-11-24T09:31:23.046Z,8.95
2022-11-24T09:32:22.949Z,8.98
2022-11-24T09:33:22.892Z,8.98
2022-11-24T09:34:22.912Z,8.96
2022-11-24T09:35:22.870Z,8.98
2022-11-24T09:36:22.912Z,8.95
2022-11-24T09:37:24.280Z,8.91
2022-11-24T09:38:22.858Z,8.86
2022-11-24T09:39:22.829Z,8.83
2022-11-24T09:40:22.872Z,8.79
2022-11-24T09:41:22.816Z,8.79
2022-11-24T09:42:22.852Z,8.79
2022-11-24T09:43:22.796Z,8.80
2022-11-24T09:44:22.797Z,8.79
2022-11-24T09:45:41.739Z,8.76
2022-11-24T09:46:22.790Z,8.76
2022-11-24T09:47:22.751Z,8.71
2022-11-24T09:48:22.770Z,8.73
2022-11-24T09:49:22.726Z,8.74
2022-11-24T09:50:22.768Z,8.74
2022-11-24T09:51:22.705Z,8.74
2022-11-24T09:52:22.758Z,8.74
2022-11-24T09:53:22.683Z,8.70
2022-11-24T09:54:22.811Z,8.68
2022-11-24T09:55:22.663Z,8.71
2022-11-24T09:56:22.673Z,8.71
2022-11-24T09:57:22.646Z,8.74
2022-11-24T09:58:22.658Z,8.76
2022-11-24T09:59:22.641Z,8.76
2022-11-24T10:00:22.633Z,8.80
2022-11-24T10:01:22.687Z,8.80
2022-11-24T10:02:22.628Z,8.80
2022-11-24T10:03:22.577Z,8.84
2022-11-24T10:04:22.632Z,8.84
2022-11-24T10:05:22.564Z,8.87
2022-11-24T10:06:22.574Z,8.87
2022-11-24T10:07:22.613Z,8.84
2022-11-24T10:08:22.571Z,8.87
2022-11-24T10:09:22.519Z,8.89
2022-11-24T10:10:25.068Z,8.89
2022-11-24T10:11:22.490Z,8.83
2022-11-24T10:12:22.502Z,8.79
2022-11-24T10:13:22.474Z,8.76
2022-11-24T10:14:22.494Z,8.74
2022-11-24T10:15:22.467Z,8.70
2022-11-24T10:16:22.554Z,8.66
2022-11-24T10:17:22.430Z,8.59
2022-11-24T10:18:22.443Z,8.52
2022-11-24T10:19:22.414Z,8.44
2022-11-24T10:20:22.421Z,8.36
2022-11-24T10:21:22.415Z,8.28
2022-11-24T10:22:22.403Z,8.22
2022-11-24T10:23:22.364Z,8.18
2022-11-24T10:24:22.395Z,8.11
2022-11-24T10:25:22.350Z,8.07
2022-11-24T10:26:22.360Z,8.02
2022-11-24T10:27:22.322Z,8.00
2022-11-24T10:28:22.334Z,7.97
2022-11-24T10:29:22.311Z,7.93
2022-11-24T10:30:22.303Z,7.93
2022-11-24T10:31:22.318Z,7.90
2022-11-24T10:32:22.305Z,7.89
2022-11-24T10:33:27.127Z,7.89
2022-11-24T10:34:22.291Z,7.86
2022-11-24T10:35:22.262Z,7.83
2022-11-24T10:36:22.263Z,7.83
2022-11-24T10:37:22.266Z,7.79
2022-11-24T10:38:22.228Z,7.79
2022-11-24T10:39:22.199Z,7.75
2022-11-24T10:40:48.731Z,7.74
2022-11-24T10:41:22.192Z,7.75
2022-11-24T10:42:22.194Z,7.72
2022-11-24T10:43:22.184Z,7.69
2022-11-24T10:44:22.162Z,7.69
2022-11-24T10:45:22.154Z,7.69
2022-11-24T10:46:22.191Z,7.69
2022-11-24T10:47:22.113Z,7.67
2022-11-24T10:48:22.193Z,7.69
2022-11-24T10:49:22.093Z,7.68
2022-11-24T10:50:22.093Z,7.68
2022-11-24T10:51:22.119Z,7.69
2022-11-24T10:52:22.061Z,7.68
2022-11-24T10:53:22.079Z,7.69
2022-11-24T10:54:22.062Z,7.69
2022-11-24T10:55:22.055Z,7.68
2022-11-24T10:56:22.060Z,7.68
2022-11-24T10:57:22.039Z,7.67
2022-11-24T10:58:22.017Z,7.68
2022-11-24T10:59:22.051Z,7.67
2022-11-24T11:00:21.985Z,7.68
2022-11-24T11:01:22.059Z,7.68
2022-11-24T11:02:22.010Z,7.68
2022-11-24T11:03:21.975Z,7.68
2022-11-24T11:04:21.967Z,7.69
2022-11-24T11:05:21.964Z,7.71
2022-11-24T11:06:21.918Z,7.72
2022-11-24T11:07:21.994Z,7.74
2022-11-24T11:08:21.906Z,7.75
2022-11-24T11:09:21.932Z,7.75
2022-11-24T11:10:21.882Z,7.77
2022-11-24T11:11:21.913Z,7.79
2022-11-24T11:12:42.668Z,7.79
2022-11-24T11:13:21.884Z,7.79
2022-11-24T11:14:21.843Z,7.79
2022-11-24T11:15:21.838Z,7.80
2022-11-24T11:16:21.847Z,7.80
2022-11-24T11:17:21.815Z,7.82
2022-11-24T11:18:21.808Z,7.85
2022-11-24T11:19:47.283Z,7.87
2022-11-24T11:20:21.784Z,7.89
2022-11-24T11:21:21.833Z,7.93
2022-11-24T11:22:21.747Z,8.00
2022-11-24T11:23:21.771Z,8.04
2022-11-24T11:24:21.748Z,8.08
2022-11-24T11:25:21.782Z,8.11
2022-11-24T11:26:21.710Z,8.18
2022-11-24T11:27:21.912Z,8.23
2022-11-24T11:28:21.689Z,8.26
2022-11-24T11:31:22.171Z,8.34
2022-11-24T11:34:25.258Z,8.33
2022-11-24T11:35:21.675Z,8.38
2022-11-24T11:36:21.615Z,8.41
2022-11-24T11:37:21.608Z,8.45
2022-11-24T11:38:21.587Z,8.55
2022-11-24T11:39:21.608Z,8.62
2022-11-24T11:40:21.566Z,8.66
2022-11-24T11:41:21.905Z,8.76
2022-11-24T11:42:53.681Z,8.86
2022-11-24T11:43:21.567Z,9.01
2022-11-24T11:44:21.584Z,9.17
2022-11-24T11:45:21.574Z,9.29
2022-11-24T11:46:21.769Z,9.39
2022-11-24T11:47:21.596Z,9.46
2022-11-24T11:48:21.950Z,9.47
2022-11-24T11:49:21.489Z,9.48
2022-11-24T11:50:21.475Z,9.48
2022-11-24T11:51:23.961Z,9.42
2022-11-24T11:52:21.434Z,9.36
2022-11-24T11:53:21.449Z,9.29
2022-11-24T11:54:21.411Z,9.24
2022-11-24T11:55:21.477Z,9.21
2022-11-24T11:56:21.403Z,9.15
2022-11-24T11:57:21.425Z,9.14
2022-11-24T11:58:21.393Z,9.11
2022-11-24T11:59:21.388Z,9.04
2022-11-24T12:00:21.378Z,9.01
2022-11-24T12:01:21.372Z,8.96
2022-11-24T12:02:21.544Z,8.96
2022-11-24T12:03:21.455Z,8.96
2022-11-24T12:04:21.344Z,8.96
2022-11-24T12:05:21.328Z,8.96
2022-11-24T12:06:21.314Z,8.98
2022-11-24T12:07:21.398Z,9.01
2022-11-24T12:08:21.859Z,8.99
2022-11-24T12:09:21.533Z,9.04
2022-11-24T12:10:21.244Z,9.10
2022-11-24T12:11:21.260Z,9.15
2022-11-24T12:12:21.232Z,9.26
2022-11-24T12:13:21.245Z,9.47
2022-11-24T12:14:21.208Z,9.46
2022-11-24T12:15:21.217Z,9.51
2022-11-24T12:16:21.238Z,9.61
2022-11-24T12:17:21.250Z,9.69
2022-11-24T12:18:55.141Z,9.74
2022-11-24T12:19:21.304Z,9.76
2022-11-24T12:20:21.140Z,10.02
2022-11-24T12:21:26.194Z,10.32
2022-11-24T12:22:21.135Z,10.60
2022-11-24T12:23:21.155Z,10.64
2022-11-24T12:24:21.114Z,10.70
2022-11-24T12:25:21.132Z,10.88
2022-11-24T12:26:21.073Z,10.76
2022-11-24T12:27:23.108Z,10.51
2022-11-24T12:28:21.075Z,10.40
2022-11-24T12:29:21.110Z,10.44
2022-11-24T12:30:21.046Z,10.56
2022-11-24T12:31:21.082Z,10.51
2022-11-24T12:32:21.438Z,10.34
2022-11-24T12:33:21.014Z,10.20
2022-11-24T12:34:21.023Z,10.17
2022-11-24T12:35:21.009Z,10.25
2022-11-24T12:36:20.064Z,10.79
2022-11-24T12:37:20.983Z,10.71
2022-11-24T12:38:20.961Z,10.63
2022-11-24T12:39:20.984Z,10.59
2022-11-24T12:40:20.924Z,10.71
2022-11-24T12:42:19.971Z,10.99
2022-11-24T12:43:20.918Z,10.94
2022-11-24T12:44:20.946Z,10.86
2022-11-24T12:45:20.954Z,10.66
2022-11-24T12:46:20.944Z,10.53
2022-11-24T12:47:20.913Z,10.44
2022-11-24T12:48:20.835Z,10.34
2022-11-24T12:49:20.847Z,10.32
2022-11-24T12:50:21.199Z,10.30
2022-11-24T12:51:20.821Z,10.26
2022-11-24T12:52:20.899Z,10.27
2022-11-24T12:53:20.810Z,10.22
2022-11-24T12:54:20.794Z,10.09
2022-11-24T12:55:20.812Z,9.94
2022-11-24T12:56:20.754Z,9.90
2022-11-24T12:57:21.004Z,9.87
2022-11-24T12:58:20.731Z,9.81
2022-11-24T12:59:20.757Z,9.76
2022-11-24T13:00:20.709Z,9.69
2022-11-24T13:01:20.771Z,9.66
2022-11-24T13:02:20.811Z,9.61
2022-11-24T13:03:20.728Z,9.56
2022-11-24T13:04:20.708Z,9.58
2022-11-24T13:05:20.677Z,9.56
2022-11-24T13:06:20.653Z,9.56
2022-11-24T13:07:21.457Z,9.53
2022-11-24T13:08:20.643Z,9.50
2022-11-24T13:09:20.664Z,9.47
2022-11-24T13:10:34.618Z,9.47
2022-11-24T13:11:20.623Z,9.54
2022-11-24T13:12:20.605Z,9.56
2022-11-24T13:13:20.812Z,9.66
2022-11-24T13:14:20.559Z,9.99
2022-11-24T13:15:44.494Z,10.22
2022-11-24T13:16:35.853Z,10.34
2022-11-24T13:17:52.423Z,10.91
2022-11-24T13:18:20.555Z,11.18
2022-11-24T13:19:20.536Z,11.62
2022-11-24T13:20:20.500Z,12.02
2022-11-24T13:21:20.520Z,12.16
2022-11-24T13:22:20.482Z,12.35
2022-11-24T13:23:20.518Z,12.64
2022-11-24T13:24:20.586Z,12.54